Time;durP1;ratioP1;P1;durP2;ratioP2;P2;SDS_P1;SDS_P2;PMS_P1;PMS_P2;Temp;Humidity;BMP_temperature;BMP_pressure;BME280_temperature;BME280_humidity;BME280_pressure;Samples;Min_cycle;Max_cycle;Signal;HPM_P1;HPM_P2
2022/08/05 00:01:02;;;;;;;0.10;0.10;;;;;;;;;;4902812;29;20047;-96
2022/08/05 00:03:55;;;;;;;0.10;0.10;;;;;;;;;;4886934;29;20044;-96
2022/08/05 00:06:24;;;;;;;0.10;0.10;;;;;;;;;;4881552;29;20054;-96
2022/08/05 00:09:03;;;;;;;;;;;;;;;;;;;;;
2022/08/05 00:11:49;;;;;;;0.10;0.10;;;;;;;;;;4905082;29;20060;-96
2022/08/05 00:26:47;;;;;;;0.10;0.10;;;;;;;;;;4915406;29;20107;-96
2022/08/05 00:32:45;;;;;;;0.10;0.10;;;;;;;;;;4884531;29;20048;-96
2022/08/05 00:35:35;;;;;;;0.10;0.10;;;;;;;;;;4899907;29;20055;-96
2022/08/05 00:38:01;;;;;;;0.10;0.10;;;;;;;;;;4916734;29;20500;-95
2022/08/05 00:40:27;;;;;;;0.10;0.10;;;;;;;;;;4900982;29;20551;-96
2022/08/05 00:42:53;;;;;;;0.10;0.10;;;;;;;;;;4900600;29;20476;-95
2022/08/05 00:45:19;;;;;;;0.10;0.10;;;;;;;;;;4900584;29;20036;-96
2022/08/05 02:31:33;;;;;;;0.10;0.10;;;;;;;;;;4880582;29;20053;-96
2022/08/05 02:34:14;;;;;;;0.10;0.10;;;;;;;;;;4836030;29;20041;-96
2022/08/05 02:36:45;;;;;;;0.10;0.10;;;;;;;;;;4833803;29;20053;-95
2022/08/05 02:39:19;;;;;;;0.10;0.10;;;;;;;;;;4835283;29;20041;-96
2022/08/05 02:44:56;;;;;;;0.10;0.10;;;;;;;;;;4855261;29;20040;-96
2022/08/05 02:47:31;;;;;;;0.10;0.10;;;;;;;;;;4852633;29;20049;-95
2022/08/05 02:50:13;;;;;;;;;;;;;;;;;;;;;
2022/08/05 02:56:09;;;;;;;;;;;;;;;;;;;;;
2022/08/05 03:21:41;;;;;;;0.10;0.10;;;;;;;;;;4907253;29;20040;-96
2022/08/05 03:27:44;;;;;;;0.10;0.10;;;;;;;;;;4922664;29;20047;-96
2022/08/05 03:30:11;;;;;;;0.10;0.10;;;;;;;;;;4889962;29;20476;-96
2022/08/05 03:35:33;;;;;;;0.10;0.10;;;;;;;;;;4945193;23;20143;-96
2022/08/05 03:38:01;;;;;;;0.10;0.10;;;;;;;;;;4907604;29;20510;-95
2022/08/05 03:40:28;;;;;;;0.10;0.10;;;;;;;;;;4908640;29;20395;-96
2022/08/05 03:42:55;;;;;;;0.10;0.10;;;;;;;;;;4909044;29;20058;-95
2022/08/05 03:45:24;;;;;;;0.10;0.10;;;;;;;;;;4910034;29;20050;-95
2022/08/05 03:47:51;;;;;;;0.10;0.10;;;;;;;;;;4908040;29;20043;-94
2022/08/05 03:50:17;;;;;;;0.10;0.10;;;;;;;;;;4908323;28;20522;-94
2022/08/05 03:53:02;;;;;;;0.10;0.10;;;;;;;;;;4908398;29;20479;-94
2022/08/05 03:55:33;;;;;;;0.10;0.10;;;;;;;;;;4923813;29;20191;-94
2022/08/05 03:58:04;;;;;;;0.10;0.10;;;;;;;;;;4907974;29;20043;-94
2022/08/05 04:00:31;;;;;;;0.10;0.10;;;;;;;;;;4924057;29;20050;-96
2022/08/05 04:03:11;;;;;;;0.10;0.10;;;;;;;;;;4908034;28;20550;-93
2022/08/05 04:05:37;;;;;;;0.10;0.10;;;;;;;;;;4923715;29;20051;-93
2022/08/05 04:08:04;;;;;;;0.10;0.10;;;;;;;;;;4908150;29;20475;-94
2022/08/05 04:10:30;;;;;;;0.10;0.10;;;;;;;;;;4908989;29;20479;-94
2022/08/05 04:12:56;;;;;;;0.10;0.10;;;;;;;;;;4907696;29;20039;-93
2022/08/05 04:15:22;;;;;;;0.10;0.10;;;;;;;;;;4907423;28;20552;-93
2022/08/05 04:17:49;;;;;;;0.10;0.10;;;;;;;;;;4907607;29;20074;-93
2022/08/05 04:20:21;;;;;;;0.10;0.10;;;;;;;;;;4923593;29;20031;-93
2022/08/05 04:22:48;;;;;;;0.10;0.10;;;;;;;;;;4906709;29;20051;-93
2022/08/05 04:25:14;;;;;;;0.10;0.10;;;;;;;;;;4907002;29;20050;-92
2022/08/05 04:27:40;;;;;;;0.10;0.10;;;;;;;;;;4907859;29;20479;-94
2022/08/05 04:30:07;;;;;;;0.10;0.10;;;;;;;;;;4907859;28;20134;-94
2022/08/05 04:32:33;;;;;;;0.10;0.10;;;;;;;;;;4907695;29;20505;-94
2022/08/05 04:34:59;;;;;;;0.10;0.10;;;;;;;;;;4907722;29;20101;-93
2022/08/05 04:37:25;;;;;;;0.10;0.10;;;;;;;;;;4906544;29;20057;-94
2022/08/05 04:39:51;;;;;;;0.10;0.10;;;;;;;;;;4907482;29;20039;-94
2022/08/05 04:42:18;;;;;;;0.10;0.10;;;;;;;;;;4907308;28;20047;-95
2022/08/05 04:44:44;;;;;;;0.10;0.10;;;;;;;;;;4906687;28;20089;-93
2022/08/05 04:47:10;;;;;;;0.22;0.22;;;;;;;;;;4907295;29;20050;-93
2022/08/05 04:49:37;;;;;;;0.10;0.10;;;;;;;;;;4907342;29;20043;-93
2022/08/05 04:52:03;;;;;;;0.10;0.10;;;;;;;;;;4906477;29;20043;-92
2022/08/05 04:54:30;;;;;;;0.10;0.10;;;;;;;;;;4906484;29;20076;-93
2022/08/05 04:56:57;;;;;;;0.10;0.10;;;;;;;;;;4922055;28;20129;-93
2022/08/05 04:59:23;;;;;;;0.10;0.10;;;;;;;;;;4906559;29;20045;-93
2022/08/05 05:01:50;;;;;;;0.10;0.10;;;;;;;;;;4907108;29;20094;-93
2022/08/05 05:04:16;;;;;;;0.10;0.10;;;;;;;;;;4907340;29;20090;-93
2022/08/05 05:06:42;;;;;;;0.10;0.10;;;;;;;;;;4906732;29;20047;-93
2022/08/05 05:09:08;;;;;;;0.10;0.10;;;;;;;;;;4906944;29;20047;-94
2022/08/05 05:11:34;;;;;;;0.10;0.10;;;;;;;;;;4906559;29;20043;-92
2022/08/05 05:14:02;;;;;;;0.10;0.10;;;;;;;;;;4906872;29;20046;-94
2022/08/05 05:16:28;;;;;;;0.10;0.10;;;;;;;;;;4907300;29;20035;-94
2022/08/05 05:18:54;;;;;;;0.10;0.10;;;;;;;;;;4906084;29;20043;-93
2022/08/05 05:21:20;;;;;;;0.10;0.10;;;;;;;;;;4906248;29;20054;-93
2022/08/05 05:23:46;;;;;;;0.10;0.10;;;;;;;;;;4906654;29;20133;-94
2022/08/05 05:26:12;;;;;;;0.10;0.10;;;;;;;;;;4906906;29;20047;-94
2022/08/05 05:28:38;;;;;;;0.10;0.10;;;;;;;;;;4906875;29;20050;-93
2022/08/05 05:31:04;;;;;;;0.10;0.10;;;;;;;;;;4906089;29;20043;-93
2022/08/05 05:33:30;;;;;;;0.10;0.10;;;;;;;;;;4906272;29;20046;-93
2022/08/05 05:35:56;;;;;;;0.10;0.10;;;;;;;;;;4907187;29;20110;-92
2022/08/05 05:38:22;;;;;;;0.10;0.10;;;;;;;;;;4908605;29;20098;-93
2022/08/05 05:40:49;;;;;;;0.10;0.10;;;;;;;;;;4908500;28;20035;-92
2022/08/05 05:43:26;;;;;;;0.10;0.10;;;;;;;;;;4939054;29;20483;-94
2022/08/05 05:45:54;;;;;;;0.10;0.10;;;;;;;;;;4938633;29;20047;-92
2022/08/05 05:48:20;;;;;;;0.10;0.10;;;;;;;;;;4908588;29;20145;-92
2022/08/05 05:50:46;;;;;;;0.10;0.10;;;;;;;;;;4911721;29;20130;-93
2022/08/05 05:53:12;;;;;;;0.10;0.10;;;;;;;;;;4910906;28;20043;-92
2022/08/05 05:55:38;;;;;;;0.10;0.10;;;;;;;;;;4911138;29;20480;-91
2022/08/05 05:58:04;;;;;;;0.10;0.10;;;;;;;;;;4909829;29;20075;-93
2022/08/05 06:00:30;;;;;;;0.10;0.10;;;;;;;;;;4910196;29;20090;-92
2022/08/05 06:02:56;;;;;;;0.10;0.10;;;;;;;;;;4915133;29;20039;-92
2022/08/05 06:05:22;;;;;;;0.10;0.10;;;;;;;;;;4910544;29;20054;-92
2022/08/05 06:07:48;;;;;;;0.10;0.10;;;;;;;;;;4910260;28;20047;-93
2022/08/05 06:10:15;;;;;;;0.10;0.10;;;;;;;;;;4909946;29;20047;-92
2022/08/05 06:12:41;;;;;;;0.10;0.10;;;;;;;;;;4909945;29;20039;-94
2022/08/05 06:15:53;;;;;;;0.10;0.10;;;;;;;;;;4911220;29;20039;-96
2022/08/05 06:18:15;;;;;;;0.10;0.10;;;;;;;;;;4929745;28;20078;-92
2022/08/05 06:20:41;;;;;;;0.10;0.10;;;;;;;;;;4909464;29;20047;-91
2022/08/05 06:23:07;;;;;;;0.10;0.10;;;;;;;;;;4909814;29;20051;-92
2022/08/05 06:25:33;;;;;;;0.20;0.20;;;;;;;;;;4909535;29;20400;-92
2022/08/05 06:27:59;;;;;;;0.10;0.10;;;;;;;;;;4909791;29;20098;-93
2022/08/05 06:30:26;;;;;;;0.10;0.10;;;;;;;;;;4909501;29;20464;-95
2022/08/05 06:32:52;;;;;;;0.10;0.10;;;;;;;;;;4909276;28;20165;-93
2022/08/05 06:35:18;;;;;;;0.10;0.10;;;;;;;;;;4909018;28;20414;-89
2022/08/05 06:37:45;;;;;;;0.10;0.10;;;;;;;;;;4909036;29;20094;-91
2022/08/05 06:40:11;;;;;;;0.10;0.10;;;;;;;;;;4908504;29;20039;-90
2022/08/05 06:42:37;;;;;;;0.10;0.10;;;;;;;;;;4908270;29;20487;-91
2022/08/05 06:45:04;;;;;;;0.10;0.10;;;;;;;;;;4908330;29;20043;-91
2022/08/05 06:47:30;;;;;;;0.10;0.10;;;;;;;;;;4924085;28;20051;-91
2022/08/05 06:49:56;;;;;;;0.10;0.10;;;;;;;;;;4924062;29;20050;-90
2022/08/05 06:52:22;;;;;;;0.10;0.10;;;;;;;;;;4939650;29;20043;-92
2022/08/05 06:54:48;;;;;;;0.10;0.10;;;;;;;;;;4923984;29;20050;-92
2022/08/05 06:57:17;;;;;;;0.10;0.10;;;;;;;;;;4908736;29;20053;-91
2022/08/05 06:59:43;;;;;;;0.10;0.10;;;;;;;;;;4907766;29;20039;-92
2022/08/05 07:02:09;;;;;;;0.10;0.10;;;;;;;;;;4923753;28;20083;-91
2022/08/05 07:04:35;;;;;;;0.10;0.10;;;;;;;;;;4908318;29;20091;-91
2022/08/05 07:07:01;;;;;;;0.10;0.10;;;;;;;;;;4907808;29;20467;-91
2022/08/05 07:09:27;;;;;;;0.10;0.10;;;;;;;;;;4903057;29;20050;-91
2022/08/05 07:11:54;;;;;;;0.10;0.10;;;;;;;;;;4919995;29;20415;-90
2022/08/05 07:17:05;;;;;;;0.10;0.10;;;;;;;;;;4917385;29;20403;-91
2022/08/05 07:19:31;;;;;;;0.10;0.10;;;;;;;;;;4920458;28;20042;-91
2022/08/05 07:21:57;;;;;;;0.10;0.10;;;;;;;;;;4942232;28;20133;-91
2022/08/05 07:24:23;;;;;;;0.10;0.10;;;;;;;;;;4926452;28;20101;-91
2022/08/05 07:26:50;;;;;;;0.10;0.10;;;;;;;;;;4942067;28;20042;-91
2022/08/05 07:29:16;;;;;;;0.10;0.10;;;;;;;;;;4926516;28;20101;-91
2022/08/05 07:31:42;;;;;;;0.10;0.10;;;;;;;;;;4926373;28;20047;-92
2022/08/05 07:34:08;;;;;;;0.10;0.10;;;;;;;;;;4926142;28;20042;-91
2022/08/05 07:36:34;;;;;;;0.10;0.10;;;;;;;;;;4925866;28;20055;-92
2022/08/05 07:39:01;;;;;;;0.10;0.10;;;;;;;;;;4942036;28;20035;-91
2022/08/05 07:41:27;;;;;;;0.10;0.10;;;;;;;;;;4942041;28;20039;-90
2022/08/05 07:43:53;;;;;;;0.10;0.10;;;;;;;;;;4941850;28;20053;-89
2022/08/05 07:46:19;;;;;;;0.10;0.10;;;;;;;;;;4925776;28;20043;-88
2022/08/05 07:48:45;;;;;;;0.10;0.10;;;;;;;;;;4941776;28;20042;-89
2022/08/05 07:51:11;;;;;;;0.10;0.10;;;;;;;;;;4941277;28;20039;-90
2022/08/05 07:53:37;;;;;;;0.10;0.10;;;;;;;;;;4957321;28;20122;-91
2022/08/05 07:56:04;;;;;;;0.10;0.10;;;;;;;;;;4941489;28;20089;-89
2022/08/05 07:58:30;;;;;;;0.10;0.10;;;;;;;;;;4941388;28;20047;-89
2022/08/05 08:00:56;;;;;;;0.10;0.10;;;;;;;;;;4941424;28;20045;-89
2022/08/05 08:03:22;;;;;;;0.10;0.10;;;;;;;;;;4925871;28;20034;-89
2022/08/05 08:05:51;;;;;;;0.10;0.10;;;;;;;;;;4941189;28;20049;-90
2022/08/05 08:08:17;;;;;;;0.45;0.45;;;;;;;;;;4942220;28;20126;-90
2022/08/05 08:10:43;;;;;;;0.10;0.10;;;;;;;;;;4940800;28;20129;-89
2022/08/05 08:13:09;;;;;;;0.10;0.10;;;;;;;;;;4940444;28;20146;-91
2022/08/05 08:15:35;;;;;;;0.10;0.10;;;;;;;;;;4957179;28;20458;-90
2022/08/05 08:18:01;;;;;;;0.10;0.10;;;;;;;;;;4940988;28;20102;-92
2022/08/05 08:20:27;;;;;;;0.10;0.10;;;;;;;;;;4941045;28;20043;-89
2022/08/05 08:22:53;;;;;;;0.10;0.10;;;;;;;;;;4940984;28;20046;-90
2022/08/05 08:25:19;;;;;;;0.10;0.10;;;;;;;;;;4941101;28;20042;-90
2022/08/05 08:27:45;;;;;;;0.10;0.10;;;;;;;;;;4941183;28;20389;-91
2022/08/05 08:30:12;;;;;;;0.10;0.10;;;;;;;;;;4940962;28;20562;-90
2022/08/05 08:32:38;;;;;;;0.10;0.10;;;;;;;;;;4940751;28;20043;-89
2022/08/05 08:35:04;;;;;;;0.10;0.10;;;;;;;;;;4957104;28;20117;-89
2022/08/05 08:37:30;;;;;;;0.10;0.10;;;;;;;;;;4953464;28;20142;-90
2022/08/05 08:39:56;;;;;;;0.10;0.10;;;;;;;;;;4922033;29;20437;-90
2022/08/05 08:42:22;;;;;;;0.10;0.10;;;;;;;;;;4922048;29;20043;-89
2022/08/05 08:44:49;;;;;;;0.10;0.10;;;;;;;;;;4922139;29;20051;-90
2022/08/05 08:47:15;;;;;;;0.10;0.10;;;;;;;;;;4921814;29;20058;-90
2022/08/05 08:49:43;;;;;;;0.10;0.10;;;;;;;;;;4906248;29;20147;-89
2022/08/05 08:52:13;;;;;;;0.10;0.10;;;;;;;;;;4905868;29;20139;-90
2022/08/05 08:54:39;;;;;;;0.10;0.10;;;;;;;;;;4921183;28;20553;-90
2022/08/05 08:57:06;;;;;;;0.10;0.10;;;;;;;;;;4921827;29;20035;-91
2022/08/05 08:59:32;;;;;;;0.10;0.10;;;;;;;;;;4953331;28;20043;-92
2022/08/05 09:01:58;;;;;;;0.10;0.10;;;;;;;;;;4906279;29;20043;-93
2022/08/05 09:04:25;;;;;;;0.10;0.10;;;;;;;;;;4906338;29;20138;-93
2022/08/05 09:06:52;;;;;;;0.10;0.10;;;;;;;;;;4921857;29;20070;-93
2022/08/05 09:09:18;;;;;;;0.10;0.10;;;;;;;;;;4906307;29;20530;-93
2022/08/05 09:11:44;;;;;;;0.10;0.10;;;;;;;;;;4905990;29;20303;-93
2022/08/05 09:14:11;;;;;;;0.10;0.10;;;;;;;;;;4906244;29;20095;-93
2022/08/05 09:16:42;;;;;;;0.10;0.10;;;;;;;;;;4906557;29;20043;-94
2022/08/05 09:19:08;;;;;;;0.10;0.10;;;;;;;;;;4906372;29;20046;-94
2022/08/05 09:21:38;;;;;;;0.10;0.10;;;;;;;;;;4937788;29;20078;-94
2022/08/05 09:24:07;;;;;;;0.10;0.10;;;;;;;;;;4906583;29;20483;-94
2022/08/05 09:26:33;;;;;;;0.10;0.10;;;;;;;;;;4906733;29;20082;-95
2022/08/05 09:29:00;;;;;;;0.20;0.20;;;;;;;;;;4906938;29;20087;-96
2022/08/05 09:31:26;;;;;;;0.10;0.10;;;;;;;;;;4922504;29;20055;-95
2022/08/05 09:33:53;;;;;;;0.10;0.10;;;;;;;;;;4922810;28;20051;-93
2022/08/05 09:36:19;;;;;;;0.10;0.10;;;;;;;;;;4931322;28;20054;-95
2022/08/05 09:38:56;;;;;;;0.10;0.10;;;;;;;;;;4926169;28;20109;-91
2022/08/05 09:41:22;;;;;;;0.10;0.10;;;;;;;;;;4941555;28;20078;-93
2022/08/05 09:43:48;;;;;;;0.10;0.10;;;;;;;;;;4933746;29;20046;-92
2022/08/05 09:46:30;;;;;;;0.10;0.10;;;;;;;;;;4907142;29;20039;-91
2022/08/05 09:48:56;;;;;;;0.15;0.15;;;;;;;;;;4907391;29;20074;-92
2022/08/05 09:51:30;;;;;;;0.10;0.10;;;;;;;;;;4918691;28;20042;-94
2022/08/05 09:53:57;;;;;;;0.10;0.10;;;;;;;;;;4943221;28;20049;-92
2022/08/05 09:56:26;;;;;;;0.10;0.10;;;;;;;;;;4942975;28;20051;-94
2022/08/05 09:58:58;;;;;;;0.20;0.20;;;;;;;;;;4940517;28;20050;-92
2022/08/05 10:01:24;;;;;;;0.10;0.10;;;;;;;;;;4941030;28;20039;-93
2022/08/05 10:03:58;;;;;;;0.10;0.10;;;;;;;;;;4925405;28;20035;-92
2022/08/05 10:06:25;;;;;;;0.10;0.10;;;;;;;;;;4941052;28;20042;-90
2022/08/05 10:08:51;;;;;;;0.10;0.10;;;;;;;;;;4940398;28;20046;-92
2022/08/05 10:11:17;;;;;;;0.10;0.10;;;;;;;;;;4940444;28;20046;-91
2022/08/05 10:13:43;;;;;;;0.10;0.10;;;;;;;;;;4941037;28;20394;-92
2022/08/05 10:16:29;;;;;;;0.10;0.10;;;;;;;;;;4926368;28;20042;-93
2022/08/05 10:18:55;;;;;;;0.10;0.10;;;;;;;;;;4940817;28;20430;-91
2022/08/05 10:21:22;;;;;;;0.10;0.10;;;;;;;;;;4942323;28;20048;-93
2022/08/05 10:23:49;;;;;;;0.10;0.10;;;;;;;;;;4941141;28;20042;-92
2022/08/05 10:26:15;;;;;;;0.10;0.10;;;;;;;;;;4943369;28;20070;-91
2022/08/05 10:28:43;;;;;;;0.10;0.10;;;;;;;;;;4942696;28;20089;-92
2022/08/05 10:31:09;;;;;;;0.10;0.10;;;;;;;;;;4941284;28;20061;-92
2022/08/05 10:33:35;;;;;;;0.10;0.10;;;;;;;;;;4926314;28;20402;-93
2022/08/05 10:36:03;;;;;;;0.10;0.10;;;;;;;;;;4929473;28;20522;-92
2022/08/05 10:38:29;;;;;;;0.10;0.10;;;;;;;;;;4944057;28;20054;-91
2022/08/05 10:41:14;;;;;;;0.10;0.10;;;;;;;;;;4944433;28;20129;-94
2022/08/05 10:43:59;;;;;;;0.10;0.10;;;;;;;;;;4944337;28;20042;-93
2022/08/05 10:46:29;;;;;;;0.10;0.10;;;;;;;;;;4943754;28;20046;-94
2022/08/05 10:48:59;;;;;;;0.10;0.10;;;;;;;;;;4960183;28;20519;-91
2022/08/05 10:51:25;;;;;;;0.10;0.10;;;;;;;;;;4943979;28;20042;-93
2022/08/05 10:53:54;;;;;;;0.10;0.10;;;;;;;;;;4943449;28;20470;-92
2022/08/05 10:56:20;;;;;;;0.10;0.10;;;;;;;;;;4943276;28;20043;-90
2022/08/05 10:58:53;;;;;;;0.10;0.10;;;;;;;;;;4943314;28;20657;-91
2022/08/05 11:01:29;;;;;;;0.13;0.13;;;;;;;;;;4959065;28;20046;-92
2022/08/05 11:04:02;;;;;;;0.10;0.10;;;;;;;;;;4943441;28;20039;-92
2022/08/05 11:06:28;;;;;;;0.10;0.10;;;;;;;;;;4943035;28;20035;-91
2022/08/05 11:09:10;;;;;;;0.10;0.10;;;;;;;;;;4942889;28;20085;-92
2022/08/05 11:11:36;;;;;;;0.20;0.20;;;;;;;;;;4943076;28;20066;-93
2022/08/05 11:14:05;;;;;;;0.10;0.10;;;;;;;;;;4943978;28;20046;-93
2022/08/05 11:16:38;;;;;;;0.20;0.20;;;;;;;;;;4943243;28;20498;-93
2022/08/05 11:19:26;;;;;;;0.10;0.10;;;;;;;;;;4943223;28;20122;-95
2022/08/05 11:21:54;;;;;;;0.10;0.10;;;;;;;;;;4942923;28;20390;-93
2022/08/05 11:24:20;;;;;;;0.10;0.10;;;;;;;;;;4924793;29;20054;-93
2022/08/05 11:26:47;;;;;;;0.10;0.10;;;;;;;;;;4907834;29;20266;-92
2022/08/05 11:29:32;;;;;;;0.10;0.10;;;;;;;;;;4907658;29;20130;-91
2022/08/05 11:32:18;;;;;;;0.10;0.10;;;;;;;;;;4939073;29;20047;-93
2022/08/05 11:34:47;;;;;;;0.10;0.10;;;;;;;;;;4939571;29;20052;-94
2022/08/05 11:37:19;;;;;;;0.13;0.13;;;;;;;;;;4907868;29;20087;-92
2022/08/05 11:39:46;;;;;;;0.15;0.15;;;;;;;;;;4907611;29;20503;-92
2022/08/05 11:42:12;;;;;;;0.20;0.20;;;;;;;;;;4907675;29;20047;-92
2022/08/05 11:44:38;;;;;;;0.15;0.15;;;;;;;;;;4923739;29;20038;-92
2022/08/05 11:47:06;;;;;;;0.10;0.10;;;;;;;;;;4907243;29;20517;-93
2022/08/05 11:49:32;;;;;;;0.10;0.10;;;;;;;;;;4907435;29;20043;-91
2022/08/05 11:51:58;;;;;;;0.10;0.10;;;;;;;;;;4907479;29;20053;-94
2022/08/05 11:54:27;;;;;;;0.10;0.10;;;;;;;;;;4907449;29;20043;-93
2022/08/05 11:56:54;;;;;;;0.10;0.10;;;;;;;;;;4907287;29;20039;-91
2022/08/05 11:59:24;;;;;;;0.10;0.10;;;;;;;;;;4907141;29;20067;-91
2022/08/05 12:01:57;;;;;;;0.10;0.10;;;;;;;;;;4907682;29;20050;-91
2022/08/05 12:04:28;;;;;;;0.10;0.10;;;;;;;;;;4907073;29;20133;-94
2022/08/05 12:06:57;;;;;;;0.10;0.10;;;;;;;;;;4922862;29;20051;-90
2022/08/05 12:09:28;;;;;;;0.10;0.10;;;;;;;;;;4922998;29;20043;-92
2022/08/05 12:11:54;;;;;;;0.10;0.10;;;;;;;;;;4922887;29;20062;-93
2022/08/05 12:14:20;;;;;;;0.10;0.10;;;;;;;;;;4923006;29;20129;-91
2022/08/05 12:16:46;;;;;;;0.10;0.10;;;;;;;;;;4907227;29;20039;-93
2022/08/05 12:19:13;;;;;;;0.10;0.10;;;;;;;;;;4907565;29;20071;-92
2022/08/05 12:21:51;;;;;;;0.13;0.13;;;;;;;;;;4908421;29;20050;-92
2022/08/05 12:24:18;;;;;;;0.10;0.10;;;;;;;;;;4908136;29;20313;-92
2022/08/05 12:26:45;;;;;;;0.10;0.10;;;;;;;;;;4906779;29;20047;-92
2022/08/05 12:29:15;;;;;;;0.20;0.20;;;;;;;;;;4906524;29;20051;-92
2022/08/05 12:31:46;;;;;;;0.20;0.20;;;;;;;;;;4907002;29;20440;-92
2022/08/05 12:34:12;;;;;;;0.10;0.10;;;;;;;;;;4907639;29;20138;-92
2022/08/05 12:36:39;;;;;;;0.10;0.10;;;;;;;;;;4907485;29;20051;-92
2022/08/05 12:39:06;;;;;;;0.10;0.10;;;;;;;;;;4907023;29;20051;-93
2022/08/05 12:41:32;;;;;;;0.10;0.10;;;;;;;;;;4906488;29;20098;-92
2022/08/05 12:44:00;;;;;;;0.10;0.10;;;;;;;;;;4906952;29;20039;-92
2022/08/05 12:46:28;;;;;;;0.10;0.10;;;;;;;;;;4906759;29;20099;-93
2022/08/05 12:49:01;;;;;;;0.10;0.10;;;;;;;;;;4906336;29;20039;-92
2022/08/05 12:51:30;;;;;;;0.10;0.10;;;;;;;;;;4938122;29;20039;-92
2022/08/05 12:54:02;;;;;;;0.10;0.10;;;;;;;;;;4906644;29;20094;-92
2022/08/05 12:56:29;;;;;;;0.10;0.10;;;;;;;;;;4906498;29;20083;-92
2022/08/05 12:59:12;;;;;;;0.10;0.10;;;;;;;;;;4905339;29;20107;-92
2022/08/05 13:01:39;;;;;;;0.10;0.10;;;;;;;;;;4922544;29;20530;-92
2022/08/05 13:04:06;;;;;;;0.10;0.10;;;;;;;;;;4906326;29;20134;-93
2022/08/05 13:06:32;;;;;;;0.17;0.17;;;;;;;;;;4922582;29;20051;-92
2022/08/05 13:08:59;;;;;;;0.10;0.10;;;;;;;;;;4906561;29;20115;-93
2022/08/05 13:11:28;;;;;;;0.10;0.10;;;;;;;;;;4906326;29;20051;-92
2022/08/05 13:13:56;;;;;;;0.10;0.10;;;;;;;;;;4906628;29;20039;-92
2022/08/05 13:16:22;;;;;;;0.10;0.10;;;;;;;;;;4906644;29;20485;-92
2022/08/05 13:18:52;;;;;;;0.10;0.10;;;;;;;;;;4906278;29;20043;-92
2022/08/05 13:21:18;;;;;;;0.10;0.10;;;;;;;;;;4906258;29;20035;-92
2022/08/05 13:23:44;;;;;;;0.10;0.10;;;;;;;;;;4906569;29;20050;-91
2022/08/05 13:26:10;;;;;;;0.10;0.10;;;;;;;;;;4906526;29;20039;-93
2022/08/05 13:28:36;;;;;;;0.30;0.30;;;;;;;;;;4906256;29;20054;-93
2022/08/05 13:31:02;;;;;;;0.10;0.10;;;;;;;;;;4905918;29;20043;-92
2022/08/05 13:33:29;;;;;;;0.10;0.10;;;;;;;;;;4905731;29;20078;-92
2022/08/05 13:35:56;;;;;;;0.10;0.10;;;;;;;;;;4905770;29;20059;-93
2022/08/05 13:38:23;;;;;;;0.10;0.10;;;;;;;;;;4905509;29;20043;-92
2022/08/05 13:40:50;;;;;;;0.10;0.10;;;;;;;;;;4905578;29;20055;-92
2022/08/05 13:43:16;;;;;;;0.20;0.20;;;;;;;;;;4906134;29;20078;-92
2022/08/05 13:45:42;;;;;;;0.10;0.10;;;;;;;;;;4906400;29;20047;-91
2022/08/05 13:48:10;;;;;;;0.10;0.10;;;;;;;;;;4922174;29;20043;-91
2022/08/05 13:50:36;;;;;;;0.10;0.10;;;;;;;;;;4907361;29;20554;-92
2022/08/05 13:53:03;;;;;;;0.10;0.10;;;;;;;;;;4907746;29;20384;-92
2022/08/05 13:55:29;;;;;;;0.10;0.10;;;;;;;;;;4908559;29;20039;-93
2022/08/05 13:57:55;;;;;;;0.10;0.10;;;;;;;;;;4908604;29;20054;-92
2022/08/05 14:00:21;;;;;;;0.10;0.10;;;;;;;;;;4905552;29;20043;-91
2022/08/05 14:02:48;;;;;;;0.10;0.10;;;;;;;;;;4906092;29;20544;-92
2022/08/05 14:05:14;;;;;;;0.10;0.10;;;;;;;;;;4908636;29;20043;-92
2022/08/05 14:07:41;;;;;;;0.10;0.10;;;;;;;;;;4907716;29;20094;-93
2022/08/05 14:10:11;;;;;;;0.10;0.10;;;;;;;;;;4908382;29;20114;-92
2022/08/05 14:12:37;;;;;;;0.10;0.10;;;;;;;;;;4909266;29;20047;-92
2022/08/05 14:15:05;;;;;;;0.10;0.10;;;;;;;;;;4909692;29;20055;-93
2022/08/05 14:17:31;;;;;;;0.10;0.10;;;;;;;;;;4925012;29;20411;-92
2022/08/05 14:19:57;;;;;;;0.20;0.20;;;;;;;;;;4909949;29;20047;-92
2022/08/05 14:22:23;;;;;;;0.10;0.10;;;;;;;;;;4910524;29;20047;-92
2022/08/05 14:24:49;;;;;;;0.10;0.10;;;;;;;;;;4910726;29;20479;-92
2022/08/05 14:27:15;;;;;;;0.10;0.10;;;;;;;;;;4910786;29;20070;-92
2022/08/05 14:29:41;;;;;;;0.10;0.10;;;;;;;;;;4909529;29;20043;-92
2022/08/05 14:32:07;;;;;;;0.10;0.10;;;;;;;;;;4909193;29;20047;-91
2022/08/05 14:34:33;;;;;;;0.10;0.10;;;;;;;;;;4909075;29;20046;-93
2022/08/05 14:36:59;;;;;;;0.10;0.10;;;;;;;;;;4908812;29;20055;-92
2022/08/05 14:39:25;;;;;;;0.10;0.10;;;;;;;;;;4908776;29;20040;-92
2022/08/05 14:41:52;;;;;;;0.10;0.10;;;;;;;;;;4908914;29;20043;-92
2022/08/05 14:44:18;;;;;;;3.30;0.30;;;;;;;;;;4908792;29;20483;-92
2022/08/05 14:46:44;;;;;;;0.20;0.20;;;;;;;;;;4908573;29;20500;-92
2022/08/05 14:49:11;;;;;;;0.10;0.10;;;;;;;;;;4924169;29;20039;-92
2022/08/05 14:51:37;;;;;;;0.10;0.10;;;;;;;;;;4908742;29;20097;-92
2022/08/05 14:54:04;;;;;;;0.10;0.10;;;;;;;;;;4908546;29;20043;-93
2022/08/05 14:56:30;;;;;;;0.10;0.10;;;;;;;;;;4908563;29;20039;-92
2022/08/05 14:58:58;;;;;;;0.10;0.10;;;;;;;;;;4908657;29;20091;-92
2022/08/05 15:01:24;;;;;;;0.10;0.10;;;;;;;;;;4908612;29;20491;-92
2022/08/05 15:03:50;;;;;;;0.10;0.10;;;;;;;;;;4908416;29;20043;-91
2022/08/05 15:06:16;;;;;;;0.20;0.20;;;;;;;;;;4908459;29;20050;-92
2022/08/05 15:08:43;;;;;;;0.10;0.10;;;;;;;;;;4908446;29;20054;-91
2022/08/05 15:11:09;;;;;;;0.13;0.13;;;;;;;;;;4908295;29;20035;-92
2022/08/05 15:13:36;;;;;;;0.10;0.10;;;;;;;;;;4908121;29;20054;-92
2022/08/05 15:16:02;;;;;;;0.10;0.10;;;;;;;;;;4908437;29;20479;-92
2022/08/05 15:18:28;;;;;;;0.10;0.10;;;;;;;;;;4908142;29;20039;-92
2022/08/05 15:20:54;;;;;;;0.10;0.10;;;;;;;;;;4908083;29;20528;-92
2022/08/05 15:23:21;;;;;;;0.10;0.10;;;;;;;;;;4908291;29;20078;-92
2022/08/05 15:25:47;;;;;;;0.10;0.10;;;;;;;;;;4908186;29;20050;-92
2022/08/05 15:28:14;;;;;;;0.10;0.10;;;;;;;;;;4907809;29;20549;-92
2022/08/05 15:30:40;;;;;;;0.10;0.10;;;;;;;;;;4923565;29;20446;-92
2022/08/05 15:33:06;;;;;;;0.10;0.10;;;;;;;;;;4908036;29;20043;-92
2022/08/05 15:35:32;;;;;;;0.10;0.10;;;;;;;;;;4907671;28;20051;-92
2022/08/05 15:37:58;;;;;;;0.10;0.10;;;;;;;;;;4923508;29;20555;-92
2022/08/05 15:40:24;;;;;;;0.10;0.10;;;;;;;;;;4907576;29;20099;-92
2022/08/05 15:42:50;;;;;;;0.10;0.10;;;;;;;;;;4907794;29;20501;-92
2022/08/05 15:45:17;;;;;;;0.17;0.17;;;;;;;;;;4907512;29;20046;-93
2022/08/05 15:47:43;;;;;;;0.10;0.10;;;;;;;;;;4907678;29;20411;-92
2022/08/05 15:50:09;;;;;;;0.10;0.10;;;;;;;;;;4907783;29;20067;-91
2022/08/05 15:52:38;;;;;;;0.10;0.10;;;;;;;;;;4907501;29;20089;-92
2022/08/05 15:55:05;;;;;;;0.10;0.10;;;;;;;;;;4907636;29;20035;-92
2022/08/05 15:57:31;;;;;;;0.20;0.20;;;;;;;;;;4908800;29;20051;-92
2022/08/05 16:00:00;;;;;;;0.10;0.10;;;;;;;;;;4912687;29;20391;-91
2022/08/05 16:02:26;;;;;;;0.10;0.10;;;;;;;;;;4909412;29;20053;-92
2022/08/05 16:04:53;;;;;;;0.10;0.10;;;;;;;;;;4923287;29;20057;-93
2022/08/05 16:07:21;;;;;;;0.10;0.10;;;;;;;;;;4923348;29;20504;-92
2022/08/05 16:09:48;;;;;;;0.10;0.10;;;;;;;;;;4908198;29;20120;-92
2022/08/05 16:12:14;;;;;;;1.45;0.63;;;;;;;;;;4907360;29;20115;-92
2022/08/05 16:14:40;;;;;;;0.10;0.10;;;;;;;;;;4907433;29;20039;-92
2022/08/05 16:17:06;;;;;;;0.10;0.10;;;;;;;;;;4907000;29;20035;-92
2022/08/05 16:19:32;;;;;;;0.10;0.10;;;;;;;;;;4907465;29;20138;-92
2022/08/05 16:21:58;;;;;;;0.10;0.10;;;;;;;;;;4907502;29;20089;-92
2022/08/05 16:24:24;;;;;;;0.10;0.10;;;;;;;;;;4906660;29;20494;-91
2022/08/05 16:26:50;;;;;;;0.10;0.10;;;;;;;;;;4906839;29;20494;-92
2022/08/05 16:29:17;;;;;;;0.10;0.10;;;;;;;;;;4922430;29;20039;-92
2022/08/05 16:31:43;;;;;;;0.10;0.10;;;;;;;;;;4906630;28;20054;-92
2022/08/05 16:34:09;;;;;;;0.10;0.10;;;;;;;;;;4906447;29;20043;-92
2022/08/05 16:36:35;;;;;;;0.10;0.10;;;;;;;;;;4906731;29;20051;-92
2022/08/05 16:39:01;;;;;;;0.10;0.10;;;;;;;;;;4906903;29;20563;-93
2022/08/05 16:41:27;;;;;;;0.10;0.10;;;;;;;;;;4907036;29;20039;-92
2022/08/05 16:43:53;;;;;;;0.10;0.10;;;;;;;;;;4907122;29;20226;-92
2022/08/05 16:46:19;;;;;;;0.10;0.10;;;;;;;;;;4923014;29;20372;-92
2022/08/05 16:48:45;;;;;;;0.10;0.10;;;;;;;;;;4922430;29;20120;-92
2022/08/05 16:51:15;;;;;;;0.10;0.10;;;;;;;;;;4906941;29;20075;-92
2022/08/05 16:53:41;;;;;;;0.10;0.10;;;;;;;;;;4906699;29;20388;-92
2022/08/05 16:56:07;;;;;;;0.20;0.20;;;;;;;;;;4906652;29;20046;-92
2022/08/05 16:58:34;;;;;;;0.10;0.10;;;;;;;;;;4906590;29;20089;-92
2022/08/05 17:01:00;;;;;;;0.10;0.10;;;;;;;;;;4906704;29;20602;-92
2022/08/05 17:03:26;;;;;;;0.10;0.10;;;;;;;;;;4922092;29;20051;-92
2022/08/05 17:05:54;;;;;;;0.20;0.20;;;;;;;;;;4906370;29;20093;-93
2022/08/05 17:08:20;;;;;;;0.20;0.20;;;;;;;;;;4906318;29;20428;-92
2022/08/05 17:10:47;;;;;;;0.15;0.15;;;;;;;;;;4906143;29;20043;-91
2022/08/05 17:13:13;;;;;;;0.10;0.10;;;;;;;;;;4921515;29;20059;-92
2022/08/05 17:15:40;;;;;;;0.10;0.10;;;;;;;;;;4906413;29;20095;-92
2022/08/05 17:18:06;;;;;;;0.10;0.10;;;;;;;;;;4922158;29;20074;-91
2022/08/05 17:20:32;;;;;;;0.10;0.10;;;;;;;;;;4905687;29;20055;-89
2022/08/05 17:22:58;;;;;;;0.10;0.10;;;;;;;;;;4905647;29;20160;-89
2022/08/05 17:25:25;;;;;;;0.13;0.13;;;;;;;;;;4921786;29;20372;-93
2022/08/05 17:27:52;;;;;;;0.10;0.10;;;;;;;;;;4905897;29;20046;-90